Wenn Sie den Mauscursor in der Übersichtskarte über ein Stationssymbol ziehen, so werden die aktuellen Stationsdaten eingeblendet. Neben dem Stationsnamen wird der Zeitpunkt in MEZ eingeblendet, bis zu dem aktuelle Daten verfügbar sind. Zunächst wird die aktuelle Niederschlagsumme für das letzte Messintervall angegeben (15 Minuten). Dadurch wird ersichtlich, ob und in welcher Intensität es regnet. Danach wird die Niederschlagsumme für die vergangenen 24 Stunden angegeben. Der aktuelle Lufttemperaturwert rundet die Information zum Mouse - Over ab.   

Durch Anklicken des entsprechenden Stationssymbols gelangen Sie zu den Gangliniendarstellung der Niederschlagshöhe und der Lufttemperatur. Jeder Parameter ist für einen Zeitraum für 30 Tage dargestellt. 

Wo verfügbar, stellen wir die Niederschlagsverhältnisse des aktuellen Kalenderjahres und des Vorjahres den langjährigen Vergleichsreihen grafisch auf 2 Arten gegenüber.

Eine Grafik wird in Form von Summenlinien erstellt. In dieser wird die Niederschlagssumme für das aktuelle Kalenderjahr und jenes davor ab Jahresbeginn tageweise aufsummiert und so den Vergleichszeitreihen (ebenso als minimale, mittlere und maximale Summenlinien dargestellt) gegenübergestellt.

In einer anderen Grafik vergleichen wir die Niederschlags - Monatssummen des aktuellen Kalenderjahres und des Vorjahres mit den langjährigen Vergleichsreihen. Dabei stellen wir für die Vergleichszeitreihen das langjährige Mittel, das Maximum und das Minimum für jedes Monat dar.

Zudem können Sie die Daten für die letzten 30 Tage downloaden.

Die  Stationssymbole auf der Übersichtskarte werden entsprechend der Niederschlagshöhe in den letzten 24 Stunden vor dem angegebenen Zeitpunkt bei der jeweiligen Station eingefärbt (siehe dazu Legende neben der Übersichtskarte).

Abschließend haben wir für Sie eine Übersichtstabelle unterhalb der Übersichtskarte angefügt. Hier werden die Niederschlagsstationen des Burgenlandes alphabetisch aufgelistet die aktuellen Messwerte dargestellt und es besteht die Möglichkeit der Navigation zu den bereits beschriebenen grafischen Darstellungen.

Stationsname Zeit [MEZ] NS [mm/15min] NS [mm/24h] Temp [°C] Luftfeuchte [%]
Andau 30.11.2022 18:30 0,0 0,0 4,5
Apetlon - A79 30.11.2022 18:45 0,0 0,0 4,5 100,0
Aspang 30.11.2022 18:30 0,0 1,3 2,0
Bad Tatzmannsdorf 30.11.2022 18:30 0,0 0,2 3,3
Bernstein 30.11.2022 18:30 0,0 0,9 0,7
Bonisdorf 30.11.2022 18:45 0,0 4,4 2,1 100,0
Bruckneudorf 30.11.2022 18:30 0,0 0,0 3,8
Deutsch Jahrndorf 30.11.2022 18:30 0,0 0,0 4,4 100,0
Deutsch Kaltenbrunn 30.11.2022 18:45 0,1 2,0 2,8
Deutschkreutz 30.11.2022 18:45 0,0 0,3 4,4 89,0
Donnerskirchen 30.11.2022 18:45 0,0 0,0 5,0 75,0
Drassburg 30.11.2022 18:45 0,0 0,1 3,5 98,0
Dürnbach 30.11.2022 18:45 0,0 0,4 3,5 82,0
Eisenstadt 30.11.2022 18:45 0,0 0,0 4,3 85,0
Feldbach 30.11.2022 18:30 0,0 2,9 3,0
Fischbach 30.11.2022 18:30 0,0 3,6 -0,3
Frankenau 30.11.2022 18:45 0,0 0,1 3,9 92,0
Frauenkirchen 30.11.2022 18:45 0,0 0,0 3,9 100,0
Fürstenfeld 30.11.2022 18:30 0,0 3,0 3,7
Gattendorf 30.11.2022 18:45 0,0 0,0 4,4 87,0
Glasing 30.11.2022 18:45 0,0 0,3 3,4
Gleisdorf 30.11.2022 18:30 0,0 2,5 3,3
Halbturn 30.11.2022 18:45 0,0 0,0 4,4 98,0
Heiligenkreuz 30.11.2022 18:45 0,0 1,1 3,4 95,0
Hirschenkogel 30.11.2022 18:30 0,0 1,1 3,3
Hirschenstein 30.11.2022 18:45 0,0 0,7 0,1 100,0
Illmitz - Biologische Station 30.11.2022 18:45 0,0 0,0 4,2
Karl 30.11.2022 18:45 0,0 0,5 2,8 100,0
Kleinzicken 30.11.2022 18:30 0,0 0,2 3,5
Kobersdorf 30.11.2022 18:45 0,0 0,2 2,6 100,0
Lutzmannsburg 30.11.2022 18:30 0,0 0,1 3,8
Mattersburg 30.11.2022 18:30 0,0 0,0 3,2
Moenichkirchen 30.11.2022 18:30 0,0 2,1 -0,4
Nebersdorf 30.11.2022 18:45 0,0 0,2 4,1 89,0
Neumarkt an der Raab 30.11.2022 18:45 0,0 3,8 3,6 100,0
Neusiedl am See 30.11.2022 18:30 0,0 0,0 4,6
Neustift an der Rosalia 30.11.2022 18:45 0,0 0,5 1,1 95,0
Nickelsdorf 30.11.2022 18:45 0,0 0,0 4,7 100,0
Nikitsch 30.11.2022 18:45 0,0 0,5 3,8 89,0
Oberpullendorf 30.11.2022 18:45 0,0 0,5 4,1 90,0
Oberwart 30.11.2022 18:45 0,0 0,4 3,7 88,0
Pinkafeld 30.11.2022 18:45 0,0 1,2 3,4 100,0
Pottschach 30.11.2022 18:30 0,0 1,0 2,4
Puchberg 30.11.2022 18:30 0,0 0,6 1,6
Ritzing 30.11.2022 18:45 0,0 0,3 3,2 100,0
Rust 30.11.2022 18:45 0,0 0,0 4,8 88,0
Seibersdorf 30.11.2022 18:30 0,0 0,0 3,5
Sieggraben 30.11.2022 18:45 0,0 0,5 1,9 100,0
St. Margarethen - Berg 30.11.2022 18:45 0,0 0,0 3,4 99,0
St. Michael 30.11.2022 18:45 0,0 0,9 2,8 100,0
Stadtschlaining 30.11.2022 18:45 0,0 0,7 1,9 48,0
Trausdorf 30.11.2022 18:45 0,0 0,0 4,5 96,0
Wiener Neustadt 30.11.2022 18:30 0,0 0,0 3,2
Woerterberg 30.11.2022 18:30 0,0 1,0 2,8
Wulkaprodersdorf 30.11.2022 18:45 0,0 0,0 4,7 92,0
Zurndorf - Friedrichshof 30.11.2022 18:45 0,0 0,0 4,1 99,0